Time;durP1;ratioP1;P1;durP2;ratioP2;P2;SDS_P1;SDS_P2;PMS_P1;PMS_P2;Temp;Humidity;BMP_temperature;BMP_pressure;BME280_temperature;BME280_humidity;BME280_pressure;Samples;Min_cycle;Max_cycle;Signal;HPM_P1;HPM_P2
2022/07/02 00:00:58;;;;;;;2.50;2.30;;;22.10;57.50;;;;;;5113619;28;20558;-46
2022/07/02 00:03:31;;;;;;;6.03;2.70;;;22.20;57.70;;;;;;5096168;28;20201;-46
2022/07/02 00:05:58;;;;;;;3.13;2.30;;;22.30;57.30;;;;;;5111919;28;20448;-46
2022/07/02 00:08:26;;;;;;;3.30;2.40;;;22.20;57.50;;;;;;5100628;28;20433;-45
2022/07/02 00:10:53;;;;;;;3.80;2.00;;;22.20;57.50;;;;;;5101770;28;20957;-45
2022/07/02 00:13:20;;;;;;;2.40;1.70;;;22.20;57.20;;;;;;5109261;28;20432;-45
2022/07/02 00:15:46;;;;;;;7.37;2.37;;;22.20;57.20;;;;;;5104260;28;20887;-46
2022/07/02 00:18:12;;;;;;;2.13;1.93;;;22.20;57.20;;;;;;5112538;28;20510;-46
2022/07/02 00:20:40;;;;;;;3.17;2.47;;;22.30;57.30;;;;;;5114384;28;20190;-45
2022/07/02 00:23:06;;;;;;;3.40;2.10;;;22.30;56.70;;;;;;5103471;28;20524;-46
2022/07/02 00:25:43;;;;;;;2.47;1.93;;;22.30;56.70;;;;;;5109971;28;20877;-45
2022/07/02 00:28:15;;;;;;;2.20;1.77;;;22.40;56.70;;;;;;5096503;28;20197;-46
2022/07/02 00:30:45;;;;;;;2.10;2.00;;;22.40;56.70;;;;;;5102952;28;20804;-45
2022/07/02 00:33:13;;;;;;;2.43;2.23;;;22.40;56.50;;;;;;5111828;28;20439;-45
2022/07/02 00:35:40;;;;;;;2.30;2.13;;;22.40;56.30;;;;;;5110816;28;20579;-46
2022/07/02 00:38:07;;;;;;;3.10;2.20;;;22.30;56.20;;;;;;5098906;28;20449;-46
2022/07/02 00:40:33;;;;;;;2.80;2.30;;;22.20;56.60;;;;;;5097292;28;20448;-45
2022/07/02 00:42:59;;;;;;;4.10;2.07;;;22.10;56.50;;;;;;5092930;28;20538;-45
2022/07/02 00:45:26;;;;;;;2.40;2.20;;;22.10;56.70;;;;;;5088922;28;20554;-47
2022/07/02 00:47:55;;;;;;;2.30;2.20;;;22.20;56.80;;;;;;5096216;28;20927;-47
2022/07/02 00:50:21;;;;;;;2.80;1.90;;;22.20;56.60;;;;;;5108668;28;20436;-47
2022/07/02 00:52:47;;;;;;;2.47;2.27;;;22.20;56.30;;;;;;5112033;28;20431;-45
2022/07/02 00:55:13;;;;;;;4.40;2.00;;;22.30;56.20;;;;;;5117481;28;20432;-45
2022/07/02 00:57:39;;;;;;;2.87;2.60;;;22.30;56.20;;;;;;5109036;28;20726;-46
2022/07/02 01:00:07;;;;;;;2.20;2.10;;;22.10;56.50;;;;;;5104533;28;20959;-45
2022/07/02 01:02:36;;;;;;;6.30;2.13;;;22.00;56.60;;;;;;5105456;28;20854;-45
2022/07/02 01:05:03;;;;;;;1.80;1.70;;;21.90;56.60;;;;;;5106703;28;20462;-46
2022/07/02 01:07:30;;;;;;;2.87;2.67;;;21.80;57.60;;;;;;5117098;28;20476;-45
2022/07/02 01:10:16;;;;;;;2.73;2.17;;;21.80;57.30;;;;;;5100213;27;20490;-45
2022/07/02 01:12:45;;;;;;;2.07;1.97;;;21.80;57.50;;;;;;5106234;27;20441;-46
2022/07/02 01:15:10;;;;;;;4.50;2.20;;;21.80;56.90;;;;;;5124658;27;20945;-45
2022/07/02 01:17:36;;;;;;;4.67;2.23;;;21.90;57.10;;;;;;5115522;27;20531;-45
2022/07/02 01:20:03;;;;;;;2.30;2.10;;;21.90;57.40;;;;;;5116697;27;20641;-45
2022/07/02 01:22:33;;;;;;;3.90;2.57;;;22.00;56.80;;;;;;5111369;27;20279;-45
2022/07/02 01:24:59;;;;;;;2.40;2.20;;;22.00;56.50;;;;;;5115542;27;20439;-50
2022/07/02 01:27:25;;;;;;;2.13;1.93;;;22.00;56.90;;;;;;5109915;27;20436;-47
2022/07/02 01:29:51;;;;;;;3.20;2.23;;;22.00;56.40;;;;;;5117404;27;20212;-45
2022/07/02 01:32:17;;;;;;;2.00;1.90;;;21.90;56.80;;;;;;5112024;27;20191;-45
2022/07/02 01:34:48;;;;;;;10.30;3.43;;;21.90;56.80;;;;;;5108749;27;21165;-48
2022/07/02 01:37:17;;;;;;;3.40;2.30;;;21.80;56.80;;;;;;5114225;27;20467;-49
2022/07/02 01:39:44;;;;;;;2.40;2.20;;;21.60;56.90;;;;;;5103728;27;20448;-49
2022/07/02 01:42:10;;;;;;;2.47;2.00;;;21.60;57.20;;;;;;5106116;27;20487;-46
2022/07/02 01:44:37;;;;;;;2.63;2.07;;;21.40;58.30;;;;;;5110560;27;20536;-50
2022/07/02 01:47:05;;;;;;;2.13;2.03;;;21.40;58.10;;;;;;5110339;28;20454;-47
2022/07/02 01:49:31;;;;;;;2.10;2.00;;;21.60;57.50;;;;;;5105502;27;20448;-45
2022/07/02 01:51:57;;;;;;;2.53;2.33;;;21.40;57.30;;;;;;5118396;27;20444;-46
2022/07/02 01:54:23;;;;;;;1.77;1.67;;;21.10;58.20;;;;;;5106538;27;20432;-46
2022/07/02 01:56:48;;;;;;;2.50;2.00;;;21.10;58.80;;;;;;5113494;27;20648;-45
2022/07/02 01:59:14;;;;;;;2.93;2.30;;;21.00;58.80;;;;;;5107094;27;20862;-46
2022/07/02 02:01:43;;;;;;;3.03;1.93;;;21.10;58.60;;;;;;5107945;27;20325;-46
2022/07/02 02:04:09;;;;;;;5.33;2.27;;;21.30;58.40;;;;;;5106753;27;20538;-47
2022/07/02 02:06:35;;;;;;;4.37;1.90;;;21.40;57.80;;;;;;5109239;27;20451;-45
2022/07/02 02:09:01;;;;;;;6.87;2.30;;;21.40;57.90;;;;;;5110011;27;20915;-46
2022/07/02 02:11:27;;;;;;;3.73;2.10;;;21.60;57.80;;;;;;5106942;27;20522;-46
2022/07/02 02:13:52;;;;;;;2.17;1.90;;;21.50;57.30;;;;;;5106628;27;20444;-46
2022/07/02 02:16:18;;;;;;;3.53;2.70;;;21.50;57.60;;;;;;5102655;27;20207;-46
2022/07/02 02:18:44;;;;;;;6.80;5.23;;;21.50;57.40;;;;;;5117529;27;20700;-48
2022/07/02 02:21:10;;;;;;;6.37;4.33;;;21.50;57.20;;;;;;5110654;27;20217;-46
2022/07/02 02:23:35;;;;;;;6.00;3.70;;;21.40;57.70;;;;;;5109337;27;22438;-45
2022/07/02 02:26:02;;;;;;;4.53;2.77;;;21.40;57.40;;;;;;5120621;27;20444;-46
2022/07/02 02:28:27;;;;;;;2.90;2.30;;;21.40;57.70;;;;;;5107818;27;20674;-46
2022/07/02 02:30:53;;;;;;;2.63;2.30;;;21.40;57.40;;;;;;5122091;27;20442;-46
2022/07/02 02:33:18;;;;;;;2.70;2.03;;;21.40;57.00;;;;;;5117916;27;20190;-46
2022/07/02 02:35:44;;;;;;;3.90;2.47;;;21.30;57.40;;;;;;5114067;27;20603;-48
2022/07/02 02:38:10;;;;;;;3.43;1.77;;;21.30;57.80;;;;;;5113796;27;20189;-46
2022/07/02 02:40:36;;;;;;;4.37;2.17;;;21.30;57.90;;;;;;5099633;27;21021;-45
2022/07/02 02:43:01;;;;;;;4.90;1.90;;;21.20;57.20;;;;;;5100827;27;20241;-48
2022/07/02 02:45:27;;;;;;;3.13;2.07;;;21.00;58.00;;;;;;5109493;27;20649;-47
2022/07/02 02:47:53;;;;;;;3.00;2.33;;;21.00;58.10;;;;;;5111444;27;20220;-45
2022/07/02 02:50:18;;;;;;;4.03;2.40;;;21.10;58.40;;;;;;5112244;27;20285;-45
2022/07/02 02:52:44;;;;;;;2.30;2.20;;;21.10;57.80;;;;;;5118395;27;20962;-45
2022/07/02 02:55:09;;;;;;;4.63;2.00;;;21.00;57.90;;;;;;5118616;27;20235;-47
2022/07/02 02:57:35;;;;;;;2.10;2.00;;;21.20;57.70;;;;;;5101819;27;20549;-46
2022/07/02 03:00:01;;;;;;;4.73;2.50;;;21.20;58.30;;;;;;5114471;27;20189;-46
2022/07/02 03:02:26;;;;;;;3.13;2.13;;;21.20;57.40;;;;;;5100514;27;20685;-47
2022/07/02 03:04:52;;;;;;;3.37;2.10;;;21.10;57.00;;;;;;5115807;27;20184;-45
2022/07/02 03:07:18;;;;;;;2.07;1.97;;;20.80;57.50;;;;;;5098764;28;20187;-46
2022/07/02 03:09:43;;;;;;;2.00;1.90;;;20.60;58.80;;;;;;5106356;27;20187;-49
2022/07/02 03:12:09;;;;;;;2.73;2.40;;;20.60;58.90;;;;;;5113741;27;20521;-45
2022/07/02 03:14:35;;;;;;;2.47;1.90;;;20.50;58.60;;;;;;5114449;27;20199;-46
2022/07/02 03:17:01;;;;;;;3.07;2.03;;;20.50;59.50;;;;;;5115066;27;20435;-47
2022/07/02 03:19:26;;;;;;;2.37;2.00;;;20.70;58.70;;;;;;5105813;27;20270;-48
2022/07/02 03:21:52;;;;;;;2.00;1.90;;;20.30;58.70;;;;;;5105583;27;20271;-46
2022/07/02 03:24:18;;;;;;;4.00;1.83;;;20.40;60.10;;;;;;5105956;27;20231;-46
2022/07/02 03:26:43;;;;;;;2.27;1.90;;;20.40;59.50;;;;;;5108547;27;20242;-46
2022/07/02 03:29:09;;;;;;;2.43;1.80;;;20.40;59.70;;;;;;5107967;27;21981;-45
2022/07/02 03:31:34;;;;;;;2.20;2.10;;;20.30;59.00;;;;;;5114364;27;20201;-46
2022/07/02 03:34:00;;;;;;;3.27;2.00;;;20.40;59.60;;;;;;5113557;27;20205;-48
2022/07/02 03:36:26;;;;;;;2.50;2.00;;;20.40;59.70;;;;;;5101322;27;20277;-46
2022/07/02 03:38:51;;;;;;;2.60;1.87;;;20.60;59.50;;;;;;5113074;27;20195;-46
2022/07/02 03:41:17;;;;;;;9.30;2.30;;;20.70;58.60;;;;;;5110614;28;20225;-45
2022/07/02 03:43:42;;;;;;;2.20;2.10;;;20.80;58.40;;;;;;5115257;27;20195;-47
2022/07/02 03:46:08;;;;;;;1.80;1.70;;;20.90;58.10;;;;;;5113458;27;20496;-46
2022/07/02 03:48:34;;;;;;;1.80;1.70;;;21.00;58.00;;;;;;5112918;27;20186;-46
2022/07/02 03:50:59;;;;;;;2.80;1.77;;;21.10;57.30;;;;;;5086075;28;20206;-49
2022/07/02 03:53:25;;;;;;;4.23;1.70;;;21.20;57.30;;;;;;5106660;27;20202;-45
2022/07/02 03:55:51;;;;;;;3.07;2.83;;;21.20;57.50;;;;;;5106621;27;20631;-46
2022/07/02 03:58:17;;;;;;;3.23;2.23;;;21.20;57.40;;;;;;5097701;28;20510;-48
2022/07/02 04:00:42;;;;;;;3.30;2.07;;;21.30;56.90;;;;;;5099237;27;20561;-45
2022/07/02 04:03:08;;;;;;;2.50;2.30;;;21.30;56.80;;;;;;5099198;28;20709;-45
2022/07/02 04:05:33;;;;;;;1.80;1.70;;;21.40;56.40;;;;;;5097981;28;20222;-46
2022/07/02 04:07:59;;;;;;;3.57;2.43;;;21.40;56.40;;;;;;5092491;28;20299;-47
2022/07/02 04:10:25;;;;;;;2.23;2.07;;;21.40;56.90;;;;;;5108072;28;20201;-48
2022/07/02 04:12:50;;;;;;;2.30;1.80;;;21.40;56.40;;;;;;5103671;28;20190;-45
2022/07/02 04:15:16;;;;;;;1.93;1.83;;;21.40;55.90;;;;;;5096111;28;20760;-49
2022/07/02 04:17:42;;;;;;;2.30;2.00;;;21.40;56.00;;;;;;5105371;28;20273;-47
2022/07/02 04:20:08;;;;;;;3.20;2.00;;;21.40;56.10;;;;;;5105083;28;20218;-47
2022/07/02 04:22:34;;;;;;;6.60;2.23;;;21.40;56.20;;;;;;5102343;28;20226;-46
2022/07/02 04:24:59;;;;;;;2.20;2.00;;;21.30;56.90;;;;;;5089946;28;20451;-46
2022/07/02 04:27:25;;;;;;;1.53;1.43;;;21.30;56.80;;;;;;5096263;28;20187;-47
2022/07/02 04:29:50;;;;;;;2.20;2.00;;;21.20;57.00;;;;;;5096810;28;20195;-49
2022/07/02 04:32:16;;;;;;;2.30;1.90;;;20.80;58.20;;;;;;5099767;28;20287;-46
2022/07/02 04:34:42;;;;;;;1.83;1.40;;;20.90;57.90;;;;;;5106020;28;20268;-46
2022/07/02 04:37:07;;;;;;;2.73;2.53;;;20.70;57.70;;;;;;5099584;28;20206;-48
2022/07/02 04:39:33;;;;;;;2.00;1.73;;;20.70;58.80;;;;;;5098049;28;20222;-48
2022/07/02 04:41:59;;;;;;;2.23;1.93;;;20.60;58.50;;;;;;5098845;28;20242;-49
2022/07/02 04:44:25;;;;;;;2.70;1.70;;;20.70;58.80;;;;;;5103535;27;20206;-46
2022/07/02 04:46:51;;;;;;;2.00;1.80;;;20.90;58.10;;;;;;5107703;27;20189;-50
2022/07/02 04:49:17;;;;;;;1.60;1.50;;;20.90;58.40;;;;;;5121535;27;20435;-49
2022/07/02 04:51:42;;;;;;;1.90;1.80;;;20.90;57.90;;;;;;5122466;27;20293;-46
2022/07/02 04:54:08;;;;;;;2.03;1.93;;;20.40;58.30;;;;;;5115183;27;20198;-47
2022/07/02 04:56:33;;;;;;;1.97;1.87;;;20.40;59.70;;;;;;5117025;27;20205;-45
2022/07/02 04:58:59;;;;;;;2.03;1.90;;;20.50;59.20;;;;;;5107259;27;20199;-49
2022/07/02 05:01:25;;;;;;;1.83;1.73;;;20.70;59.20;;;;;;5107744;27;20694;-47
2022/07/02 05:03:52;;;;;;;1.70;1.53;;;20.70;59.30;;;;;;5121263;27;20189;-50
2022/07/02 05:06:18;;;;;;;1.90;1.80;;;20.90;59.20;;;;;;5109654;27;20451;-49
2022/07/02 05:08:44;;;;;;;2.10;2.00;;;20.90;59.30;;;;;;5115873;27;20452;-48
2022/07/02 05:11:10;;;;;;;2.80;1.70;;;20.50;60.10;;;;;;5115138;27;20923;-49
2022/07/02 05:13:35;;;;;;;4.00;1.97;;;20.50;60.80;;;;;;5105221;27;20198;-45
2022/07/02 05:16:01;;;;;;;1.60;1.50;;;20.50;60.70;;;;;;5104080;27;20203;-49
2022/07/02 05:18:27;;;;;;;2.63;1.40;;;20.70;60.50;;;;;;5119202;27;20516;-46
2022/07/02 05:20:52;;;;;;;1.73;1.63;;;20.90;60.40;;;;;;5112751;27;20194;-48
2022/07/02 05:23:18;;;;;;;2.30;2.00;;;21.10;60.10;;;;;;5117675;27;20250;-45
2022/07/02 05:25:43;;;;;;;1.97;1.87;;;21.10;59.40;;;;;;5117846;27;20182;-45
2022/07/02 05:28:09;;;;;;;1.80;1.70;;;20.80;60.00;;;;;;5101791;27;20195;-46
2022/07/02 05:30:35;;;;;;;1.90;1.80;;;20.50;61.20;;;;;;5104297;27;20193;-46
2022/07/02 05:33:00;;;;;;;1.50;1.40;;;20.60;61.70;;;;;;5112810;27;20641;-47
2022/07/02 05:35:26;;;;;;;2.13;1.40;;;20.60;61.40;;;;;;5112583;27;20182;-45
2022/07/02 05:37:52;;;;;;;3.93;1.60;;;20.80;61.10;;;;;;5122514;27;20289;-45
2022/07/02 05:40:18;;;;;;;1.77;1.67;;;21.00;60.60;;;;;;5120772;27;20198;-45
2022/07/02 05:42:44;;;;;;;2.13;1.63;;;21.30;59.80;;;;;;5118095;27;20226;-45
2022/07/02 05:45:10;;;;;;;2.60;1.40;;;21.50;59.20;;;;;;5118540;27;21044;-45
2022/07/02 05:47:35;;;;;;;1.60;1.47;;;21.60;59.20;;;;;;5121374;27;22017;-46
2022/07/02 05:50:01;;;;;;;2.00;1.60;;;21.70;58.90;;;;;;5110697;27;20539;-45
2022/07/02 05:52:27;;;;;;;3.83;2.40;;;22.00;58.70;;;;;;5118046;27;20217;-45
2022/07/02 05:54:52;;;;;;;2.10;2.00;;;22.20;58.00;;;;;;5121123;27;20182;-45
2022/07/02 05:57:18;;;;;;;3.43;1.40;;;22.30;57.70;;;;;;5116666;27;20241;-45
2022/07/02 05:59:43;;;;;;;3.07;1.37;;;22.50;57.40;;;;;;5114250;27;20194;-45
2022/07/02 06:02:09;;;;;;;2.27;1.37;;;22.60;57.20;;;;;;5122901;27;20245;-46
2022/07/02 06:04:34;;;;;;;1.57;1.47;;;22.60;57.30;;;;;;5119386;27;20202;-46
2022/07/02 06:09:45;;;;;;;2.13;1.50;;;22.70;57.30;;;;;;5118797;27;20679;-45
2022/07/02 06:12:11;;;;;;;1.87;1.30;;;22.80;57.40;;;;;;5124682;27;20440;-46
2022/07/02 06:14:37;;;;;;;2.30;1.10;;;22.80;57.40;;;;;;5120733;27;20941;-45
2022/07/02 06:17:02;;;;;;;2.20;1.10;;;22.80;57.00;;;;;;5117382;27;20455;-45
2022/07/02 06:19:28;;;;;;;2.30;1.37;;;22.60;57.20;;;;;;5119484;27;20194;-46
2022/07/02 06:21:54;;;;;;;1.07;1.07;;;22.40;58.20;;;;;;5112039;27;20246;-45
2022/07/02 06:24:20;;;;;;;1.10;1.10;;;22.20;59.00;;;;;;5110527;27;20222;-46
2022/07/02 06:26:45;;;;;;;1.70;1.60;;;22.40;58.50;;;;;;5108162;27;20630;-47
2022/07/02 06:29:11;;;;;;;2.80;1.40;;;22.30;58.90;;;;;;5126143;27;20619;-43
2022/07/02 06:31:37;;;;;;;2.03;1.43;;;22.20;59.10;;;;;;5121761;27;20301;-43
2022/07/02 06:34:06;;;;;;;1.60;1.33;;;22.20;59.10;;;;;;5117341;27;20194;-43
2022/07/02 06:36:31;;;;;;;2.00;1.10;;;22.20;59.10;;;;;;5111317;27;20443;-43
2022/07/02 06:38:57;;;;;;;1.30;1.20;;;22.40;59.00;;;;;;5118187;27;20530;-43
2022/07/02 06:44:07;;;;;;;1.40;1.30;;;22.40;58.70;;;;;;5117469;27;20713;-43
2022/07/02 06:46:34;;;;;;;1.17;1.00;;;22.50;58.40;;;;;;5116526;27;20528;-43
2022/07/02 06:49:00;;;;;;;1.73;1.20;;;22.50;58.20;;;;;;5110701;27;20198;-43
2022/07/02 06:51:26;;;;;;;1.10;1.10;;;22.60;58.50;;;;;;5111588;27;21019;-43
2022/07/02 06:53:51;;;;;;;1.00;1.00;;;22.50;58.60;;;;;;5115696;27;20535;-44
2022/07/02 06:56:17;;;;;;;0.97;0.97;;;22.60;58.30;;;;;;5114436;27;20250;-44
2022/07/02 06:58:42;;;;;;;1.07;1.07;;;22.60;57.90;;;;;;5112295;27;20202;-44
2022/07/02 07:01:08;;;;;;;1.63;1.53;;;22.70;58.00;;;;;;5115661;27;20279;-44
2022/07/02 07:03:34;;;;;;;1.20;1.10;;;22.80;57.90;;;;;;5112096;27;20187;-43
2022/07/02 07:05:59;;;;;;;1.03;1.03;;;22.70;57.50;;;;;;5117134;27;20194;-43
2022/07/02 07:08:25;;;;;;;1.83;1.50;;;22.90;57.20;;;;;;5118224;27;20274;-43
2022/07/02 07:10:50;;;;;;;1.30;1.17;;;22.80;57.20;;;;;;5124787;27;20692;-43
2022/07/02 07:13:16;;;;;;;1.37;1.20;;;23.00;57.40;;;;;;5120681;27;20185;-43
2022/07/02 07:15:41;;;;;;;1.00;1.00;;;22.90;56.40;;;;;;5108693;28;20654;-43
2022/07/02 07:18:07;;;;;;;2.03;1.00;;;22.70;56.70;;;;;;5110638;27;20188;-44
2022/07/02 07:20:34;;;;;;;1.13;1.03;;;22.70;57.20;;;;;;5122510;27;20194;-44
2022/07/02 07:22:59;;;;;;;2.07;0.97;;;22.80;57.30;;;;;;5120446;27;20233;-43
2022/07/02 07:25:25;;;;;;;0.87;0.87;;;23.10;56.50;;;;;;5122470;27;20441;-45
2022/07/02 07:27:51;;;;;;;2.30;1.00;;;23.40;56.00;;;;;;5119752;27;20218;-44
2022/07/02 07:30:17;;;;;;;0.90;0.90;;;23.30;54.90;;;;;;5109285;28;20194;-44
2022/07/02 07:32:43;;;;;;;1.03;0.97;;;23.50;55.10;;;;;;5110641;28;20230;-43
2022/07/02 07:35:09;;;;;;;1.10;1.00;;;23.80;54.20;;;;;;5115400;27;20198;-43
2022/07/02 07:37:36;;;;;;;2.30;1.20;;;24.00;53.80;;;;;;5112666;27;20971;-45
2022/07/02 07:40:07;;;;;;;1.53;1.03;;;24.00;53.70;;;;;;5115134;27;20455;-43
2022/07/02 07:42:33;;;;;;;0.90;0.90;;;24.20;53.90;;;;;;5125765;27;20487;-43
2022/07/02 07:44:59;;;;;;;0.97;0.90;;;24.40;52.90;;;;;;5112176;27;20907;-44
2022/07/02 07:47:24;;;;;;;0.90;0.90;;;24.50;53.00;;;;;;5109828;27;20443;-45
2022/07/02 07:49:50;;;;;;;2.40;1.60;;;24.70;52.00;;;;;;5117404;27;20190;-44
2022/07/02 07:52:15;;;;;;;1.00;1.00;;;24.50;51.00;;;;;;5114071;27;20222;-45
2022/07/02 07:54:41;;;;;;;1.50;0.83;;;24.10;52.00;;;;;;5115835;28;20271;-44
2022/07/02 07:57:07;;;;;;;1.20;1.10;;;23.90;51.90;;;;;;5118382;27;20198;-44
2022/07/02 07:59:33;;;;;;;0.90;0.90;;;24.00;51.10;;;;;;5115982;28;20916;-43
2022/07/02 08:01:58;;;;;;;2.63;1.00;;;24.30;50.60;;;;;;5106954;28;20584;-44
2022/07/02 08:04:24;;;;;;;1.07;0.97;;;24.70;49.60;;;;;;5120811;27;20197;-43
2022/07/02 08:06:50;;;;;;;1.60;1.10;;;24.90;48.40;;;;;;5114011;28;20202;-43
2022/07/02 08:09:16;;;;;;;1.13;1.03;;;25.00;48.70;;;;;;5121774;28;20190;-44
2022/07/02 08:11:41;;;;;;;0.80;0.80;;;25.20;48.90;;;;;;5119928;28;20437;-46
2022/07/02 08:14:07;;;;;;;0.80;0.80;;;25.40;47.40;;;;;;5113583;28;20206;-43
2022/07/02 08:16:33;;;;;;;1.37;1.10;;;25.70;46.90;;;;;;5111522;28;20206;-44
2022/07/02 08:18:58;;;;;;;0.80;0.80;;;25.60;45.80;;;;;;5114442;27;20244;-44
2022/07/02 08:21:24;;;;;;;1.10;1.00;;;25.70;47.40;;;;;;5119190;27;20213;-44
2022/07/02 08:23:50;;;;;;;0.90;0.90;;;25.70;46.90;;;;;;5113605;27;20196;-45
2022/07/02 08:26:16;;;;;;;1.30;1.20;;;26.00;47.50;;;;;;5132000;27;20186;-43
2022/07/02 08:28:41;;;;;;;1.63;0.80;;;25.90;46.00;;;;;;5127023;27;20195;-43
2022/07/02 08:31:07;;;;;;;1.40;0.83;;;26.20;46.40;;;;;;5110464;27;20454;-43
2022/07/02 08:33:33;;;;;;;2.13;1.20;;;26.40;46.40;;;;;;5122497;27;20194;-45
2022/07/02 08:35:59;;;;;;;1.30;1.20;;;26.40;45.40;;;;;;5122560;27;20435;-44
2022/07/02 08:38:25;;;;;;;1.00;0.90;;;26.50;45.70;;;;;;5116181;27;20224;-43
2022/07/02 08:40:51;;;;;;;0.90;0.90;;;26.60;45.60;;;;;;5123748;27;21017;-46
2022/07/02 08:43:17;;;;;;;2.70;1.13;;;26.40;45.30;;;;;;5120021;27;20222;-45
2022/07/02 08:45:43;;;;;;;1.77;1.00;;;26.60;45.30;;;;;;5120434;27;20189;-44
2022/07/02 08:48:11;;;;;;;0.80;0.80;;;26.50;44.80;;;;;;5124243;27;20432;-45
2022/07/02 08:50:38;;;;;;;0.80;0.80;;;26.80;44.40;;;;;;5121666;27;20447;-47
2022/07/02 08:53:04;;;;;;;1.43;0.90;;;27.20;44.10;;;;;;5116773;27;20784;-43
2022/07/02 08:55:33;;;;;;;1.77;1.10;;;27.50;43.80;;;;;;5119601;27;20448;-44
2022/07/02 08:57:59;;;;;;;1.10;1.10;;;27.50;44.70;;;;;;5120186;27;20443;-43
2022/07/02 09:00:25;;;;;;;1.17;0.90;;;27.80;43.70;;;;;;5113279;27;20431;-44
2022/07/02 09:02:53;;;;;;;1.30;1.00;;;27.70;42.60;;;;;;5123681;27;20499;-43
2022/07/02 09:05:20;;;;;;;0.80;0.80;;;27.80;41.90;;;;;;5132445;27;20987;-44
2022/07/02 09:07:47;;;;;;;1.00;1.00;;;27.80;41.90;;;;;;5109748;27;20444;-44
2022/07/02 09:10:17;;;;;;;1.90;1.10;;;28.00;41.20;;;;;;5125516;27;20435;-44
2022/07/02 09:12:44;;;;;;;1.47;1.00;;;28.20;41.70;;;;;;5122112;27;20453;-43
2022/07/02 09:15:11;;;;;;;0.90;0.90;;;28.40;41.50;;;;;;5120218;27;20444;-43
2022/07/02 09:17:37;;;;;;;1.00;1.00;;;28.40;40.30;;;;;;5115890;27;20946;-44
2022/07/02 09:20:04;;;;;;;1.23;1.13;;;28.20;39.60;;;;;;5121506;27;20872;-44
2022/07/02 09:22:36;;;;;;;2.30;1.00;;;28.40;38.50;;;;;;5116127;27;20491;-45
2022/07/02 09:25:10;;;;;;;1.23;1.13;;;28.30;37.70;;;;;;5112964;28;20429;-45
2022/07/02 09:27:36;;;;;;;0.93;0.93;;;27.80;38.20;;;;;;5115783;27;20522;-44
2022/07/02 09:30:04;;;;;;;1.53;1.00;;;27.30;38.90;;;;;;5114173;27;20530;-43
2022/07/02 09:32:37;;;;;;;0.90;0.90;;;27.20;38.80;;;;;;5111876;27;20214;-43
2022/07/02 09:35:03;;;;;;;3.90;1.23;;;27.00;38.20;;;;;;5119649;27;20475;-44
2022/07/02 09:37:29;;;;;;;1.00;1.00;;;27.30;39.70;;;;;;5112822;27;20985;-43
2022/07/02 09:39:59;;;;;;;1.10;0.80;;;27.80;38.90;;;;;;5116731;27;20252;-43
2022/07/02 09:42:30;;;;;;;0.97;0.97;;;28.10;37.50;;;;;;5109742;27;20307;-43
2022/07/02 09:44:58;;;;;;;1.07;0.90;;;28.40;36.40;;;;;;5110968;28;20557;-45
2022/07/02 09:47:48;;;;;;;1.53;0.80;;;28.50;36.50;;;;;;5115544;27;20563;-43
2022/07/02 09:50:15;;;;;;;2.13;1.17;;;28.90;37.10;;;;;;5102657;27;20811;-44
2022/07/02 09:52:53;;;;;;;1.00;1.00;;;28.30;36.10;;;;;;5120936;27;20450;-44
2022/07/02 09:55:24;;;;;;;1.20;1.00;;;27.90;36.20;;;;;;5117780;27;20952;-44
2022/07/02 09:57:51;;;;;;;1.03;1.03;;;28.20;37.40;;;;;;5122421;27;20440;-44
2022/07/02 10:00:17;;;;;;;0.80;0.80;;;28.70;36.50;;;;;;5114230;27;20428;-44
2022/07/02 10:02:43;;;;;;;2.93;0.93;;;28.90;36.70;;;;;;5112184;28;20582;-44
2022/07/02 10:05:09;;;;;;;0.90;0.90;;;29.30;35.90;;;;;;5121558;27;20570;-45
2022/07/02 10:07:35;;;;;;;1.17;0.80;;;29.40;35.00;;;;;;5119863;27;20569;-44
2022/07/02 10:10:04;;;;;;;1.00;0.90;;;29.30;34.80;;;;;;5113397;27;20243;-44
2022/07/02 10:12:30;;;;;;;1.73;1.10;;;29.30;34.30;;;;;;5109688;27;20535;-49
2022/07/02 10:14:57;;;;;;;1.17;1.17;;;29.60;34.00;;;;;;5117554;27;20534;-44
2022/07/02 10:17:23;;;;;;;1.10;1.10;;;29.80;34.50;;;;;;5116090;27;20639;-48
2022/07/02 10:19:51;;;;;;;1.10;0.90;;;29.80;34.20;;;;;;5114800;27;20444;-45
2022/07/02 10:22:19;;;;;;;2.20;0.70;;;29.70;31.60;;;;;;5111981;27;20480;-48
2022/07/02 10:24:46;;;;;;;1.40;1.30;;;29.90;32.50;;;;;;5122926;27;20488;-43
2022/07/02 10:27:12;;;;;;;0.90;0.90;;;29.60;31.70;;;;;;5101567;27;20469;-44
2022/07/02 10:29:40;;;;;;;1.63;1.00;;;29.40;31.60;;;;;;5124214;27;20498;-48
2022/07/02 10:32:24;;;;;;;0.80;0.80;;;29.20;31.40;;;;;;5123778;27;20801;-48
2022/07/02 10:35:23;;;;;;;1.97;0.90;;;29.30;32.80;;;;;;5121326;27;20450;-44
2022/07/02 10:37:57;;;;;;;1.00;0.87;;;29.90;32.90;;;;;;5073055;28;20456;-48
2022/07/02 10:40:22;;;;;;;0.83;0.83;;;30.00;31.20;;;;;;5114337;27;20441;-45
2022/07/02 10:42:50;;;;;;;1.13;0.93;;;30.00;33.00;;;;;;5110706;28;20484;-46
2022/07/02 10:45:22;;;;;;;0.97;0.93;;;30.20;33.20;;;;;;5115121;27;20182;-45
2022/07/02 10:48:01;;;;;;;1.67;0.97;;;30.50;33.30;;;;;;5116672;27;20442;-46
2022/07/02 10:50:39;;;;;;;2.40;1.20;;;31.00;33.10;;;;;;5113443;27;20447;-47
2022/07/02 10:53:08;;;;;;;1.00;1.00;;;31.20;30.20;;;;;;5120844;27;20450;-49
2022/07/02 10:55:35;;;;;;;2.40;1.10;;;31.30;29.50;;;;;;5118289;27;20474;-44
2022/07/02 10:58:03;;;;;;;1.10;1.00;;;30.90;30.00;;;;;;5113918;27;20862;-44
2022/07/02 11:00:38;;;;;;;1.73;0.90;;;30.40;30.70;;;;;;5114960;27;20431;-48
2022/07/02 11:03:13;;;;;;;0.80;0.80;;;30.60;30.10;;;;;;5117142;27;20487;-46
2022/07/02 11:05:58;;;;;;;1.17;0.97;;;30.70;29.50;;;;;;5108259;27;20447;-47
2022/07/02 11:08:54;;;;;;;1.17;1.07;;;31.00;29.30;;;;;;5117776;27;20435;-46
2022/07/02 11:11:46;;;;;;;1.27;0.83;;;30.90;29.50;;;;;;5109152;27;20452;-46
2022/07/02 11:14:14;;;;;;;1.10;1.00;;;31.10;29.20;;;;;;5112035;27;20460;-48
2022/07/02 11:16:48;;;;;;;1.30;1.20;;;31.10;29.50;;;;;;5116895;27;20843;-45
2022/07/02 11:19:18;;;;;;;0.80;0.80;;;31.10;29.80;;;;;;5117891;27;20459;-49
2022/07/02 11:21:45;;;;;;;0.70;0.70;;;31.20;29.30;;;;;;5113382;27;21029;-44
2022/07/02 11:24:11;;;;;;;0.90;0.77;;;31.30;29.50;;;;;;5111822;27;20448;-45
2022/07/02 11:26:42;;;;;;;0.90;0.90;;;31.20;29.20;;;;;;5119603;27;20435;-48
2022/07/02 11:29:08;;;;;;;1.03;0.93;;;31.30;29.00;;;;;;5118687;27;20274;-47
2022/07/02 11:31:46;;;;;;;0.83;0.83;;;31.30;28.80;;;;;;5123949;27;20972;-44
2022/07/02 11:34:30;;;;;;;0.80;0.80;;;31.40;29.30;;;;;;5118595;27;20435;-45
2022/07/02 11:36:55;;;;;;;0.90;0.80;;;31.00;29.00;;;;;;5116002;27;20450;-49
2022/07/02 11:39:23;;;;;;;1.10;1.00;;;31.30;29.40;;;;;;5110147;28;20463;-46
2022/07/02 11:41:49;;;;;;;1.13;1.13;;;31.70;29.30;;;;;;5111451;27;20225;-46
2022/07/02 11:44:20;;;;;;;1.27;1.17;;;31.70;29.10;;;;;;5123208;27;20451;-46
2022/07/02 11:46:51;;;;;;;1.27;0.70;;;32.20;29.00;;;;;;5115729;27;20439;-47
2022/07/02 11:49:21;;;;;;;1.40;1.00;;;32.60;28.40;;;;;;5121572;27;20812;-48
2022/07/02 11:51:49;;;;;;;2.33;0.87;;;32.70;28.00;;;;;;5107065;28;20444;-45
2022/07/02 11:54:16;;;;;;;1.10;0.90;;;32.40;28.40;;;;;;5114092;27;20439;-47
2022/07/02 11:56:43;;;;;;;1.43;0.93;;;32.40;28.90;;;;;;5117120;27;20448;-44
2022/07/02 11:59:14;;;;;;;3.00;1.30;;;32.10;29.10;;;;;;5091948;27;20963;-44
2022/07/02 12:01:42;;;;;;;4.90;1.13;;;32.20;29.00;;;;;;5115220;28;20528;-44
2022/07/02 12:04:16;;;;;;;0.90;0.90;;;32.30;29.10;;;;;;5118317;27;20475;-44
2022/07/02 12:06:44;;;;;;;0.93;0.90;;;32.60;28.70;;;;;;5120982;27;20434;-48
2022/07/02 12:09:12;;;;;;;0.97;0.93;;;32.70;28.00;;;;;;5112016;28;20938;-47
2022/07/02 12:11:40;;;;;;;2.40;2.20;;;33.00;27.90;;;;;;5118683;28;20495;-45
2022/07/02 12:14:07;;;;;;;1.67;1.37;;;33.40;28.10;;;;;;5112125;28;20444;-47
2022/07/02 12:16:34;;;;;;;1.00;1.00;;;33.40;27.10;;;;;;5118056;28;20441;-45
2022/07/02 12:19:14;;;;;;;1.50;1.00;;;32.40;27.40;;;;;;5113651;28;20523;-46
2022/07/02 12:21:43;;;;;;;0.90;0.90;;;32.20;28.60;;;;;;5119100;28;20474;-45
2022/07/02 12:24:27;;;;;;;0.97;0.97;;;32.20;28.60;;;;;;5111998;28;20447;-47
2022/07/02 12:26:56;;;;;;;3.50;1.03;;;32.40;28.30;;;;;;5115582;28;20447;-48
2022/07/02 12:32:14;;;;;;;1.00;1.00;;;32.70;28.40;;;;;;5105440;28;20844;-45
2022/07/02 12:34:51;;;;;;;0.87;0.87;;;32.60;29.10;;;;;;5103305;28;20445;-44
2022/07/02 12:37:28;;;;;;;1.17;1.07;;;32.90;27.90;;;;;;5113354;28;20446;-46
2022/07/02 12:40:05;;;;;;;0.97;0.97;;;32.60;28.30;;;;;;5115189;28;20468;-45
2022/07/02 12:42:33;;;;;;;1.43;1.13;;;32.50;28.80;;;;;;5107736;28;20488;-45
2022/07/02 12:45:06;;;;;;;1.20;1.10;;;32.90;28.60;;;;;;5108726;28;20936;-44
2022/07/02 12:47:34;;;;;;;1.23;1.10;;;33.40;27.70;;;;;;5116686;28;20500;-44
2022/07/02 12:50:15;;;;;;;2.80;1.13;;;33.50;28.30;;;;;;5105920;28;20476;-47
2022/07/02 12:52:44;;;;;;;1.00;1.00;;;33.70;29.20;;;;;;5105548;28;20495;-45
2022/07/02 12:55:24;;;;;;;1.50;1.03;;;33.90;28.30;;;;;;5123032;28;20490;-45
2022/07/02 12:57:52;;;;;;;1.53;1.07;;;34.00;27.70;;;;;;5109648;28;20572;-45